createdAt,value
2018-02-07T00:02:23.920Z,28.55
2018-02-07T00:04:51.406Z,29.90
2018-02-07T00:07:18.910Z,30.15
2018-02-07T00:09:46.411Z,29.42
2018-02-07T00:12:13.940Z,28.77
2018-02-07T00:14:41.426Z,29.12
2018-02-07T00:17:08.959Z,28.98
2018-02-07T00:19:36.449Z,27.17
2018-02-07T00:22:03.977Z,28.55
2018-02-07T00:24:31.472Z,30.48
2018-02-07T00:26:58.963Z,29.67
2018-02-07T00:29:26.609Z,29.08
2018-02-07T00:31:54.143Z,27.50
2018-02-07T00:34:21.742Z,31.92
2018-02-07T00:36:49.257Z,29.92
2018-02-07T00:39:16.746Z,30.98
2018-02-07T00:41:44.250Z,29.83
2018-02-07T00:44:11.852Z,31.92
2018-02-07T00:46:39.453Z,29.27
2018-02-07T00:49:07.057Z,30.20
2018-02-07T00:51:34.740Z,30.90
2018-02-07T00:54:02.279Z,29.85
2018-02-07T00:56:29.913Z,29.35
2018-02-07T00:58:57.472Z,28.80
2018-02-07T01:01:24.986Z,28.15
2018-02-07T01:03:52.460Z,27.58
2018-02-07T01:06:20.014Z,28.15
2018-02-07T01:08:47.570Z,28.30
2018-02-07T01:11:15.041Z,27.90
2018-02-07T01:13:42.573Z,28.92
2018-02-07T01:16:10.050Z,28.35
2018-02-07T01:18:37.591Z,29.45
2018-02-07T01:21:05.152Z,27.70
2018-02-07T01:23:32.669Z,28.52
2018-02-07T01:26:00.231Z,27.98
2018-02-07T01:28:27.732Z,27.05
2018-02-07T01:30:55.244Z,27.15
2018-02-07T01:33:22.722Z,27.60
2018-02-07T01:35:50.255Z,27.65
2018-02-07T01:38:17.724Z,26.67
2018-02-07T01:40:45.269Z,26.00
2018-02-07T01:43:12.756Z,25.05
2018-02-07T01:45:40.242Z,25.75
2018-02-07T01:48:07.761Z,26.90
2018-02-07T01:50:35.236Z,25.42
2018-02-07T01:53:02.812Z,26.40
2018-02-07T01:55:30.336Z,26.25
2018-02-07T01:57:57.849Z,25.48
2018-02-07T02:00:25.326Z,26.98
2018-02-07T02:02:52.867Z,25.80
2018-02-07T02:05:20.605Z,25.35
2018-02-07T02:07:48.099Z,24.83
2018-02-07T02:10:15.687Z,25.33
2018-02-07T02:12:43.282Z,25.05
2018-02-07T02:15:10.777Z,26.00
2018-02-07T02:17:38.281Z,25.27
2018-02-07T02:20:05.787Z,23.75
2018-02-07T02:22:33.272Z,24.45
2018-02-07T02:25:00.786Z,24.55
2018-02-07T02:27:28.302Z,25.30
2018-02-07T02:29:55.791Z,25.92
2018-02-07T02:32:23.305Z,25.62
2018-02-07T02:34:50.806Z,24.58
2018-02-07T02:37:18.383Z,24.58
2018-02-07T02:39:45.888Z,24.90
2018-02-07T02:42:13.369Z,24.98
2018-02-07T02:44:40.871Z,25.15
2018-02-07T02:47:08.351Z,25.42
2018-02-07T02:49:35.869Z,25.37
2018-02-07T02:52:04.069Z,25.60
2018-02-07T02:54:31.566Z,25.75
2018-02-07T02:56:59.124Z,23.20
2018-02-07T02:59:26.613Z,23.05
2018-02-07T03:01:54.347Z,24.08
2018-02-07T03:04:21.858Z,24.98
2018-02-07T03:06:49.388Z,25.00
2018-02-07T03:09:16.865Z,24.00
2018-02-07T03:11:44.371Z,24.77
2018-02-07T03:14:11.863Z,24.60
2018-02-07T03:16:39.348Z,24.55
2018-02-07T03:19:06.842Z,23.20
2018-02-07T03:21:34.314Z,23.67
2018-02-07T03:24:01.850Z,24.45
2018-02-07T03:26:29.357Z,25.15
2018-02-07T03:28:56.837Z,23.33
2018-02-07T03:31:24.351Z,25.27
2018-02-07T03:33:51.833Z,25.05
2018-02-07T03:36:19.345Z,24.10
2018-02-07T03:38:47.595Z,24.27
2018-02-07T03:41:15.080Z,24.35
2018-02-07T03:43:42.613Z,24.90
2018-02-07T03:46:10.134Z,28.67
2018-02-07T03:48:37.653Z,25.30
2018-02-07T03:51:05.148Z,25.60
2018-02-07T03:53:32.738Z,24.25
2018-02-07T03:56:00.294Z,25.02
2018-02-07T03:58:27.813Z,26.27
2018-02-07T04:00:55.337Z,24.67
2018-02-07T04:03:22.974Z,23.40
2018-02-07T04:05:50.499Z,22.92
2018-02-07T04:08:17.980Z,24.10
2018-02-07T04:10:45.585Z,23.95
2018-02-07T04:13:13.136Z,24.65
2018-02-07T04:15:40.612Z,23.95
2018-02-07T04:18:08.089Z,22.15
2018-02-07T04:20:35.590Z,25.25
2018-02-07T04:23:03.149Z,24.83
2018-02-07T04:25:30.628Z,22.58
2018-02-07T04:27:58.124Z,24.12
2018-02-07T04:30:25.687Z,22.80
2018-02-07T04:32:53.203Z,24.70
2018-02-07T04:35:20.715Z,25.70
2018-02-07T04:37:48.206Z,26.20
2018-02-07T04:40:15.726Z,26.30
2018-02-07T04:42:43.220Z,26.48
2018-02-07T04:45:10.741Z,23.48
2018-02-07T04:47:38.222Z,24.83
2018-02-07T04:50:05.699Z,25.55
2018-02-07T04:52:33.196Z,25.37
2018-02-07T04:55:00.694Z,24.33
2018-02-07T04:57:28.217Z,25.90
2018-02-07T04:59:55.707Z,26.60
2018-02-07T05:02:23.291Z,23.92
2018-02-07T05:04:50.774Z,25.50
2018-02-07T05:07:18.401Z,24.37
2018-02-07T05:09:46.136Z,26.27
2018-02-07T05:12:13.762Z,24.48
2018-02-07T05:14:41.263Z,25.70
2018-02-07T05:17:08.784Z,24.85
2018-02-07T05:19:36.659Z,28.95
2018-02-07T05:22:04.926Z,26.12
2018-02-07T05:24:32.506Z,27.80
2018-02-07T05:27:00.236Z,26.50
2018-02-07T05:29:27.784Z,27.73
2018-02-07T05:31:55.320Z,29.40
2018-02-07T05:34:22.927Z,27.83
2018-02-07T05:36:50.512Z,29.58
2018-02-07T05:39:18.030Z,30.50
2018-02-07T05:41:45.518Z,27.77
2018-02-07T05:44:13.032Z,29.63
2018-02-07T05:46:40.534Z,28.40
2018-02-07T05:49:08.040Z,28.62
2018-02-07T05:51:35.551Z,27.85
2018-02-07T05:54:03.056Z,27.05
2018-02-07T05:56:30.549Z,29.17
2018-02-07T05:58:58.047Z,26.58
2018-02-07T06:01:24.964Z,26.65
2018-02-07T06:03:52.469Z,29.40
2018-02-07T06:06:19.966Z,29.90
2018-02-07T06:08:47.471Z,28.77
2018-02-07T06:11:14.980Z,27.55
2018-02-07T06:13:43.213Z,27.90
2018-02-07T06:16:10.726Z,27.08
2018-02-07T06:18:38.240Z,26.73
2018-02-07T06:21:05.721Z,27.77
2018-02-07T06:23:33.222Z,28.80
2018-02-07T06:26:00.703Z,25.98
2018-02-07T06:28:28.245Z,27.20
2018-02-07T06:30:55.785Z,26.25
2018-02-07T06:33:22.562Z,26.52
2018-02-07T06:35:50.151Z,26.67
2018-02-07T06:38:17.645Z,26.58
2018-02-07T06:40:45.722Z,26.05
2018-02-07T06:43:13.218Z,26.45
2018-02-07T06:45:40.036Z,26.40
2018-02-07T06:48:07.521Z,27.23
2018-02-07T06:50:35.642Z,26.55
2018-02-07T06:53:03.148Z,25.95
2018-02-07T06:55:30.690Z,26.48
2018-02-07T06:57:58.239Z,26.65
2018-02-07T07:00:25.767Z,25.77
2018-02-07T07:02:53.368Z,24.12
2018-02-07T07:05:20.916Z,25.30
2018-02-07T07:07:48.414Z,25.75
2018-02-07T07:10:15.939Z,28.73
2018-02-07T07:12:43.435Z,26.30
2018-02-07T07:15:10.957Z,25.15
2018-02-07T07:17:38.438Z,26.50
2018-02-07T07:20:05.953Z,25.77
2018-02-07T07:22:33.449Z,25.80
2018-02-07T07:25:00.930Z,28.30
2018-02-07T07:27:28.459Z,27.90
2018-02-07T07:29:55.948Z,27.67
2018-02-07T07:32:23.565Z,27.58
2018-02-07T07:34:51.098Z,27.85
2018-02-07T07:37:18.604Z,27.87
2018-02-07T07:39:46.101Z,27.10
2018-02-07T07:42:13.687Z,26.25
2018-02-07T07:44:41.204Z,26.83
2018-02-07T07:47:09.295Z,27.95
2018-02-07T07:49:36.825Z,25.48
2018-02-07T07:52:04.779Z,26.33
2018-02-07T07:54:32.262Z,28.02
2018-02-07T07:56:59.795Z,27.08
2018-02-07T07:59:27.310Z,25.08
2018-02-07T08:01:54.824Z,27.70
2018-02-07T08:04:22.368Z,26.87
2018-02-07T08:06:49.910Z,27.02
2018-02-07T08:09:17.470Z,26.90
2018-02-07T08:11:44.972Z,28.35
2018-02-07T08:14:12.588Z,26.35
2018-02-07T08:16:40.074Z,25.83
2018-02-07T08:19:07.591Z,25.85
2018-02-07T08:21:35.083Z,28.17
2018-02-07T08:24:02.629Z,27.92
2018-02-07T08:26:30.130Z,27.42
2018-02-07T08:28:57.655Z,27.75
2018-02-07T08:31:25.184Z,27.05
2018-02-07T08:33:52.729Z,27.50
2018-02-07T08:36:20.232Z,25.70
2018-02-07T08:38:48.575Z,26.90
2018-02-07T08:41:16.116Z,27.65
2018-02-07T08:43:43.675Z,27.83
2018-02-07T08:46:11.182Z,26.75
2018-02-07T08:48:38.669Z,27.75
2018-02-07T08:51:06.234Z,27.35
2018-02-07T08:53:33.747Z,28.40
2018-02-07T08:56:01.320Z,26.65
2018-02-07T08:58:28.856Z,30.05
2018-02-07T09:00:56.399Z,28.35
2018-02-07T09:03:23.891Z,28.70
2018-02-07T09:05:51.375Z,28.30
2018-02-07T09:08:18.890Z,29.67
2018-02-07T09:10:46.402Z,29.25
2018-02-07T09:13:14.016Z,29.40
2018-02-07T09:15:41.534Z,28.67
2018-02-07T09:18:09.123Z,27.73
2018-02-07T09:20:36.711Z,28.70
2018-02-07T09:23:04.305Z,29.02
2018-02-07T09:25:31.851Z,30.15
2018-02-07T09:27:59.462Z,30.52
2018-02-07T09:30:27.096Z,31.85
2018-02-07T09:32:54.669Z,29.27
2018-02-07T09:35:22.234Z,30.02
2018-02-07T09:37:49.740Z,29.83
2018-02-07T09:40:17.295Z,29.02
2018-02-07T09:42:44.782Z,30.50
2018-02-07T09:45:13.034Z,31.83
2018-02-07T09:47:40.580Z,28.80
2018-02-07T09:50:08.126Z,28.90
2018-02-07T09:52:35.686Z,28.52
2018-02-07T09:55:03.181Z,29.80
2018-02-07T09:57:30.732Z,27.67
2018-02-07T09:59:58.231Z,28.08
2018-02-07T10:02:25.804Z,31.67
2018-02-07T10:04:53.719Z,33.83
2018-02-07T10:07:21.216Z,31.05
2018-02-07T10:09:48.727Z,29.70
2018-02-07T10:12:16.206Z,31.02
2018-02-07T10:14:43.723Z,32.42
2018-02-07T10:17:11.219Z,29.90
2018-02-07T10:19:38.768Z,31.70
2018-02-07T10:22:06.272Z,30.67
2018-02-07T10:24:33.796Z,30.17
2018-02-07T10:27:02.050Z,29.52
2018-02-07T10:29:29.575Z,29.30
2018-02-07T10:31:57.148Z,31.23
2018-02-07T10:34:24.626Z,31.98
2018-02-07T10:36:52.271Z,31.25
2018-02-07T10:39:19.778Z,31.10
2018-02-07T10:41:47.303Z,32.33
2018-02-07T10:44:14.791Z,32.47
2018-02-07T10:46:42.440Z,31.73
2018-02-07T10:49:09.978Z,32.28
2018-02-07T10:51:37.491Z,32.50
2018-02-07T10:54:05.003Z,32.33
2018-02-07T10:56:32.504Z,32.03
2018-02-07T10:59:00.022Z,32.67
2018-02-07T11:01:27.527Z,34.10
2018-02-07T11:03:55.036Z,31.52
2018-02-07T11:06:22.558Z,36.40
2018-02-07T11:08:50.050Z,38.47
2018-02-07T11:11:17.562Z,33.55
2018-02-07T11:13:45.065Z,35.15
2018-02-07T11:16:12.550Z,35.10
2018-02-07T11:18:40.078Z,32.85
2018-02-07T11:21:07.579Z,35.30
2018-02-07T11:23:35.065Z,35.55
2018-02-07T11:26:02.575Z,33.70
2018-02-07T11:28:30.099Z,36.03
2018-02-07T11:30:57.633Z,34.00
2018-02-07T11:33:25.140Z,34.53
2018-02-07T11:35:53.236Z,34.42
2018-02-07T11:38:20.731Z,33.47
2018-02-07T11:40:48.248Z,35.67
2018-02-07T11:43:15.879Z,35.22
2018-02-07T11:45:43.507Z,36.45
2018-02-07T11:48:11.165Z,37.05
2018-02-07T11:50:38.665Z,37.05
2018-02-07T11:53:06.202Z,38.70
2018-02-07T11:55:33.699Z,35.63
2018-02-07T11:58:01.209Z,34.67
2018-02-07T12:00:28.815Z,34.25
2018-02-07T12:02:56.313Z,34.85
2018-02-07T12:05:23.903Z,34.45
2018-02-07T12:07:51.925Z,34.70
2018-02-07T12:10:19.510Z,31.87
2018-02-07T12:12:47.012Z,34.03
2018-02-07T12:15:14.569Z,33.38
2018-02-07T12:17:42.210Z,34.50
2018-02-07T12:20:09.747Z,32.50
2018-02-07T12:22:37.406Z,34.40
2018-02-07T12:25:05.074Z,34.90
2018-02-07T12:27:32.562Z,34.25
2018-02-07T12:30:00.077Z,32.33
2018-02-07T12:32:27.674Z,33.97
2018-02-07T12:34:55.186Z,34.45
2018-02-07T12:37:22.767Z,34.25
2018-02-07T12:39:51.176Z,33.78
2018-02-07T12:42:18.710Z,36.85
2018-02-07T12:44:46.194Z,32.90
2018-02-07T12:47:13.728Z,34.67
2018-02-07T12:49:41.239Z,32.95
2018-02-07T12:52:08.734Z,33.53
2018-02-07T12:54:36.256Z,34.75
2018-02-07T12:57:03.761Z,34.25
2018-02-07T12:59:31.311Z,33.50
2018-02-07T13:01:58.917Z,34.92
2018-02-07T13:04:26.432Z,35.03
2018-02-07T13:06:53.989Z,34.15
2018-02-07T13:09:21.529Z,33.60
2018-02-07T13:11:49.061Z,35.88
2018-02-07T13:14:16.596Z,33.85
2018-02-07T13:16:44.117Z,34.78
2018-02-07T13:19:11.610Z,34.63
2018-02-07T13:21:39.100Z,33.33
2018-02-07T13:24:06.621Z,35.05
2018-02-07T13:26:34.107Z,34.75
2018-02-07T13:29:01.624Z,34.70
2018-02-07T13:31:29.171Z,34.13
2018-02-07T13:33:56.699Z,36.53
2018-02-07T13:36:24.208Z,35.45
2018-02-07T13:38:51.696Z,35.67
2018-02-07T13:41:19.414Z,35.78
2018-02-07T13:43:46.928Z,35.45
2018-02-07T13:46:14.596Z,36.00
2018-02-07T13:48:42.221Z,36.60
2018-02-07T13:51:09.813Z,37.47
2018-02-07T13:53:37.443Z,35.75
2018-02-07T13:56:05.027Z,34.97
2018-02-07T13:58:32.585Z,36.50
2018-02-07T14:01:00.122Z,34.65
2018-02-07T14:03:27.684Z,35.95
2018-02-07T14:05:55.177Z,35.70
2018-02-07T14:08:22.710Z,36.30
2018-02-07T14:10:51.792Z,34.10
2018-02-07T14:13:19.370Z,36.05
2018-02-07T14:15:46.968Z,35.35
2018-02-07T14:18:14.498Z,38.50
2018-02-07T14:20:41.991Z,35.38
2018-02-07T14:23:09.533Z,36.38
2018-02-07T14:25:37.077Z,37.80
2018-02-07T14:28:04.602Z,37.75
2018-02-07T14:30:32.109Z,37.45
2018-02-07T14:33:00.209Z,37.35
2018-02-07T14:35:27.770Z,35.42
2018-02-07T14:37:55.263Z,37.30
2018-02-07T14:40:22.855Z,36.13
2018-02-07T14:42:50.342Z,37.15
2018-02-07T14:45:17.949Z,36.83
2018-02-07T14:47:45.600Z,36.33
2018-02-07T14:50:13.091Z,36.45
2018-02-07T14:52:40.674Z,37.00
2018-02-07T14:55:08.176Z,36.55
2018-02-07T14:57:35.681Z,33.65
2018-02-07T15:00:03.200Z,35.08
2018-02-07T15:02:30.754Z,33.88
2018-02-07T15:04:58.317Z,34.63
2018-02-07T15:07:25.832Z,36.53
2018-02-07T15:09:53.445Z,36.40
2018-02-07T15:12:20.970Z,34.55
2018-02-07T15:14:48.481Z,33.22
2018-02-07T15:17:15.988Z,33.95
2018-02-07T15:19:43.559Z,34.20
2018-02-07T15:22:11.102Z,34.22
2018-02-07T15:24:38.619Z,34.92
2018-02-07T15:27:06.110Z,36.03
2018-02-07T15:29:33.728Z,35.10
2018-02-07T15:32:01.218Z,34.22
2018-02-07T15:34:28.734Z,32.88
2018-02-07T15:36:56.252Z,32.72
2018-02-07T15:39:23.885Z,33.25
2018-02-07T15:41:51.586Z,34.78
2018-02-07T15:44:19.111Z,33.13
2018-02-07T15:46:47.567Z,31.30
2018-02-07T15:49:15.049Z,30.88
2018-02-07T15:51:42.774Z,29.80
2018-02-07T15:54:10.435Z,28.48
2018-02-07T15:56:37.981Z,29.33
2018-02-07T15:59:05.618Z,29.45
2018-02-07T16:01:33.185Z,28.08
2018-02-07T16:04:00.720Z,29.40
2018-02-07T16:06:28.334Z,29.48
2018-02-07T16:08:55.947Z,27.37
2018-02-07T16:11:23.615Z,28.90
2018-02-07T16:13:51.160Z,28.20
2018-02-07T16:16:18.762Z,29.02
2018-02-07T16:18:46.303Z,26.35
2018-02-07T16:21:13.819Z,27.58
2018-02-07T16:23:41.329Z,26.80
2018-02-07T16:26:08.933Z,28.10
2018-02-07T16:28:36.503Z,27.00
2018-02-07T16:31:04.012Z,29.20
2018-02-07T16:33:31.550Z,28.00
2018-02-07T16:35:59.060Z,29.45
2018-02-07T16:38:26.596Z,26.58
2018-02-07T16:40:54.090Z,26.73
2018-02-07T16:43:21.614Z,32.00
2018-02-07T16:45:49.183Z,36.85
2018-02-07T16:48:16.720Z,30.37
2018-02-07T16:50:44.206Z,36.22
2018-02-07T16:53:11.748Z,43.80
2018-02-07T16:55:39.263Z,34.75
2018-02-07T16:58:06.778Z,47.62
2018-02-07T17:00:34.418Z,33.38
2018-02-07T17:03:01.948Z,28.10
2018-02-07T17:05:29.473Z,27.73
2018-02-07T17:07:56.971Z,27.85
2018-02-07T17:10:24.536Z,29.67
2018-02-07T17:12:52.105Z,27.70
2018-02-07T17:15:19.593Z,29.67
2018-02-07T17:17:47.140Z,29.12
2018-02-07T17:20:14.627Z,28.90
2018-02-07T17:22:42.265Z,28.08
2018-02-07T17:25:10.372Z,28.40
2018-02-07T17:27:37.878Z,29.52
2018-02-07T17:30:05.510Z,28.67
2018-02-07T17:32:33.014Z,28.92
2018-02-07T17:35:00.610Z,27.70
2018-02-07T17:37:28.132Z,28.77
2018-02-07T17:39:55.798Z,29.65
2018-02-07T17:42:23.411Z,29.20
2018-02-07T17:44:50.927Z,29.87
2018-02-07T17:47:18.439Z,28.98
2018-02-07T17:49:45.957Z,29.92
2018-02-07T17:52:13.499Z,28.48
2018-02-07T17:54:41.061Z,29.00
2018-02-07T17:57:08.582Z,28.48
2018-02-07T17:59:36.070Z,29.08
2018-02-07T18:02:03.959Z,30.05
2018-02-07T18:04:31.484Z,29.67
2018-02-07T18:06:59.027Z,29.87
2018-02-07T18:09:26.580Z,30.67
2018-02-07T18:11:54.135Z,32.60
2018-02-07T18:14:21.649Z,29.75
2018-02-07T18:16:49.200Z,31.33
2018-02-07T18:19:16.715Z,30.17
2018-02-07T18:21:44.231Z,31.05
2018-02-07T18:24:11.728Z,28.95
2018-02-07T18:26:39.237Z,30.23
2018-02-07T18:29:06.756Z,30.37
2018-02-07T18:31:34.252Z,35.00
2018-02-07T18:34:01.847Z,32.55
2018-02-07T18:36:29.408Z,30.75
2018-02-07T18:38:56.988Z,29.70
2018-02-07T18:41:24.516Z,32.10
2018-02-07T18:43:52.015Z,32.40
2018-02-07T18:46:19.561Z,33.15
2018-02-07T18:48:47.086Z,30.88
2018-02-07T18:51:14.637Z,31.65
2018-02-07T18:53:42.155Z,31.95
2018-02-07T18:56:09.673Z,32.65
2018-02-07T18:58:37.171Z,31.00
2018-02-07T19:01:04.709Z,30.02
2018-02-07T19:03:32.252Z,28.60
2018-02-07T19:06:00.198Z,30.98
2018-02-07T19:08:27.764Z,30.60
2018-02-07T19:10:55.783Z,30.20
2018-02-07T19:13:23.688Z,31.50
2018-02-07T19:15:51.207Z,32.13
2018-02-07T19:18:18.745Z,29.40
2018-02-07T19:20:46.652Z,29.85
2018-02-07T19:23:14.233Z,29.90
2018-02-07T19:25:41.786Z,29.75
2018-02-07T19:28:09.326Z,31.33
2018-02-07T19:30:37.545Z,33.53
2018-02-07T19:33:05.060Z,33.42
2018-02-07T19:35:32.623Z,32.88
2018-02-07T19:38:00.188Z,31.75
2018-02-07T19:40:27.741Z,29.87
2018-02-07T19:42:58.147Z,29.45
2018-02-07T19:45:32.510Z,31.42
2018-02-07T19:48:00.213Z,31.40
2018-02-07T19:50:27.863Z,33.10
2018-02-07T19:52:55.418Z,32.22
2018-02-07T19:55:22.952Z,33.25
2018-02-07T19:57:50.516Z,31.40
2018-02-07T20:00:18.015Z,30.23
2018-02-07T20:02:45.882Z,31.42
2018-02-07T20:05:13.833Z,29.52
2018-02-07T20:07:41.338Z,31.27
2018-02-07T20:10:09.073Z,31.00
2018-02-07T20:12:36.636Z,32.92
2018-02-07T20:15:04.172Z,30.70
2018-02-07T20:17:31.694Z,31.23
2018-02-07T20:19:59.216Z,28.70
2018-02-07T20:22:26.756Z,33.03
2018-02-07T20:24:54.259Z,29.75
2018-02-07T20:27:21.857Z,30.67
2018-02-07T20:29:50.228Z,29.75
2018-02-07T20:32:17.802Z,30.20
2018-02-07T20:34:45.449Z,30.65
2018-02-07T20:37:13.001Z,34.03
2018-02-07T20:39:40.588Z,31.50
2018-02-07T20:42:08.218Z,31.67
2018-02-07T20:44:35.732Z,29.33
2018-02-07T20:47:03.229Z,29.90
2018-02-07T20:49:30.749Z,29.80
2018-02-07T20:51:58.236Z,31.02
2018-02-07T20:54:25.775Z,30.05
2018-02-07T20:56:53.317Z,30.15
2018-02-07T20:59:20.861Z,30.08
2018-02-07T21:01:48.376Z,32.13
2018-02-07T21:04:15.975Z,29.50
2018-02-07T21:06:43.520Z,31.02
2018-02-07T21:09:11.033Z,30.23
2018-02-07T21:11:38.576Z,29.50
2018-02-07T21:14:06.170Z,31.10
2018-02-07T21:16:33.670Z,31.20
2018-02-07T21:19:01.203Z,31.35
2018-02-07T21:21:28.701Z,31.23
2018-02-07T21:23:56.229Z,30.73
2018-02-07T21:26:23.834Z,31.73
2018-02-07T21:28:51.398Z,30.67
2018-02-07T21:31:18.990Z,32.05
2018-02-07T21:33:46.561Z,31.25
2018-02-07T21:36:14.216Z,31.25
2018-02-07T21:38:41.776Z,30.25
2018-02-07T21:41:09.349Z,30.42
2018-02-07T21:43:36.834Z,29.80
2018-02-07T21:46:04.322Z,29.30
2018-02-07T21:48:31.833Z,29.90
2018-02-07T21:50:59.341Z,28.55
2018-02-07T21:53:26.879Z,30.52
2018-02-07T21:55:54.364Z,28.85
2018-02-07T21:58:21.875Z,30.17
2018-02-07T22:00:49.367Z,30.83
2018-02-07T22:03:16.877Z,28.25
2018-02-07T22:05:44.375Z,29.48
2018-02-07T22:08:11.864Z,28.95
2018-02-07T22:10:39.388Z,31.23
2018-02-07T22:13:06.911Z,30.05
2018-02-07T22:15:34.424Z,31.10
2018-02-07T22:18:01.937Z,30.98
2018-02-07T22:20:29.464Z,29.63
2018-02-07T22:22:57.697Z,30.77
2018-02-07T22:25:25.205Z,30.90
2018-02-07T22:27:52.715Z,30.23
2018-02-07T22:30:20.340Z,31.90
2018-02-07T22:32:48.256Z,28.60
2018-02-07T22:35:15.791Z,30.10
2018-02-07T22:37:43.276Z,30.12
2018-02-07T22:40:10.800Z,28.67
2018-02-07T22:42:38.341Z,30.10
2018-02-07T22:45:05.883Z,31.33
2018-02-07T22:47:33.395Z,34.80
2018-02-07T22:50:00.889Z,35.53
2018-02-07T22:52:28.494Z,31.58
2018-02-07T22:54:55.967Z,30.80
2018-02-07T22:57:23.651Z,30.73
2018-02-07T22:59:51.186Z,29.70
2018-02-07T23:02:18.848Z,29.02
2018-02-07T23:04:46.471Z,30.80
2018-02-07T23:07:14.089Z,27.52
2018-02-07T23:09:41.605Z,29.40
2018-02-07T23:12:09.314Z,30.17
2018-02-07T23:14:36.820Z,29.87
2018-02-07T23:17:04.314Z,27.90
2018-02-07T23:19:31.817Z,30.65
2018-02-07T23:21:59.662Z,30.00
2018-02-07T23:24:27.213Z,31.98
2018-02-07T23:26:54.801Z,30.37
2018-02-07T23:29:22.319Z,28.75
2018-02-07T23:31:49.807Z,29.45
2018-02-07T23:34:17.418Z,28.75
2018-02-07T23:36:45.152Z,30.23
2018-02-07T23:39:12.667Z,30.37
2018-02-07T23:41:40.312Z,28.42
2018-02-07T23:44:07.857Z,30.20
2018-02-07T23:46:35.482Z,28.90
2018-02-07T23:49:03.008Z,29.98
2018-02-07T23:51:30.641Z,28.85
2018-02-07T23:53:58.162Z,31.08
2018-02-07T23:56:25.699Z,29.73
2018-02-07T23:58:53.258Z,29.10
